Mattituck, New York
Current Conditions -  °F | °C
As of 1:53 AM on Saturday 01 Nov 2014 (Local Time) from KFOK Reporting Station
Overcast Overcast  
Wind Chill: 50°   Ceiling: 3000
Heat Index: 50°   Visibility: 10mi
Dew Point: 42°   Wind: 17mph
Humidity: 74%   Direction: 40°NE
Pressure: 29.85"   Gusts: 23mph
Location:  40.99°N, 72.53°W
Report Text: KFOK 010553Z AUTO 04015G20KT 10SM OVC030 10/06 A2985 RMK AO2 SLP107 60006 T01000056 10111 20100 56015 TSNO
Loading
Personal Weather Stations






























Interactive Weather Map New forecast layout! Learn more

10-Day Weather Forecast

Advertisements
Track Severe Weather on mobile